sensor_id;sensor_type;location;lat;lon;timestamp;pressure;altitude;pressure_sealevel;temperature;humidity
5877;BME280;2964;42.144;24.730;2023-06-26T00:01:03;147537.94;;;24.08;80.26
5877;BME280;2964;42.144;24.730;2023-06-26T00:03:30;147565.88;;;24.20;79.96
5877;BME280;2964;42.144;24.730;2023-06-26T00:05:57;147455.44;;;23.75;79.65
5877;BME280;2964;42.144;24.730;2023-06-26T00:08:26;147574.72;;;24.23;79.31
5877;BME280;2964;42.144;24.730;2023-06-26T00:10:53;147574.72;;;24.23;79.68
5877;BME280;2964;42.144;24.730;2023-06-26T00:13:19;147555.72;;;24.16;79.94
5877;BME280;2964;42.144;24.730;2023-06-26T00:15:47;147526.56;;;24.04;80.33
5877;BME280;2964;42.144;24.730;2023-06-26T00:18:14;147589.97;;;24.30;79.03
5877;BME280;2964;42.144;24.730;2023-06-26T00:20:41;147517.66;;;24.00;79.53
5877;BME280;2964;42.144;24.730;2023-06-26T00:23:07;147546.81;;;24.12;79.81
5877;BME280;2964;42.144;24.730;2023-06-26T00:25:34;147574.72;;;24.23;79.43
5877;BME280;2964;42.144;24.730;2023-06-26T00:28:01;147551.91;;;24.14;79.69
5877;BME280;2964;42.144;24.730;2023-06-26T00:30:28;147449.13;;;23.73;81.19
5877;BME280;2964;42.144;24.730;2023-06-26T00:32:56;147463.06;;;23.78;81.42
5877;BME280;2964;42.144;24.730;2023-06-26T00:35:23;147548.13;;;24.13;79.90
5877;BME280;2964;42.144;24.730;2023-06-26T00:37:50;147570.97;;;24.22;79.57
5877;BME280;2964;42.144;24.730;2023-06-26T00:40:16;147606.44;;;24.36;78.84
5877;BME280;2964;42.144;24.730;2023-06-26T00:42:43;147593.78;;;24.31;79.13
5877;BME280;2964;42.144;24.730;2023-06-26T00:45:10;147606.44;;;24.36;78.85
5877;BME280;2964;42.144;24.730;2023-06-26T00:47:37;147609.00;;;24.37;78.84
5877;BME280;2964;42.144;24.730;2023-06-26T00:50:06;147601.38;;;24.34;78.93
5877;BME280;2964;42.144;24.730;2023-06-26T00:52:33;147574.72;;;24.23;79.30
5877;BME280;2964;42.144;24.730;2023-06-26T00:54:59;147568.41;;;24.21;80.00
5877;BME280;2964;42.144;24.730;2023-06-26T00:57:26;147485.94;;;23.87;81.87
5877;BME280;2964;42.144;24.730;2023-06-26T00:59:53;147461.81;;;23.78;82.44
5877;BME280;2964;42.144;24.730;2023-06-26T01:02:20;147469.44;;;23.81;82.81
5877;BME280;2964;42.144;24.730;2023-06-26T01:04:47;147417.41;;;23.60;82.96
5877;BME280;2964;42.144;24.730;2023-06-26T01:07:16;147416.16;;;23.59;83.32
5877;BME280;2964;42.144;24.730;2023-06-26T01:09:44;147469.44;;;23.81;82.70
5877;BME280;2964;42.144;24.730;2023-06-26T01:12:11;147413.59;;;23.58;83.67
5877;BME280;2964;42.144;24.730;2023-06-26T01:14:38;147444.06;;;23.70;83.06
5877;BME280;2964;42.144;24.730;2023-06-26T01:17:05;147386.97;;;23.47;84.63
5877;BME280;2964;42.144;24.730;2023-06-26T01:19:33;147413.59;;;23.58;84.24
5877;BME280;2964;42.144;24.730;2023-06-26T01:22:06;147379.38;;;23.44;85.13
5877;BME280;2964;42.144;24.730;2023-06-26T01:24:46;147409.78;;;23.57;84.56
5877;BME280;2964;42.144;24.730;2023-06-26T01:27:20;147402.22;;;23.54;84.23
5877;BME280;2964;42.144;24.730;2023-06-26T01:29:49;147425.03;;;23.63;84.05
5877;BME280;2964;42.144;24.730;2023-06-26T01:32:16;147376.81;;;23.43;85.57
5877;BME280;2964;42.144;24.730;2023-06-26T01:34:44;147350.19;;;23.32;85.93
5877;BME280;2964;42.144;24.730;2023-06-26T01:37:11;147370.50;;;23.41;85.38
5877;BME280;2964;42.144;24.730;2023-06-26T01:39:38;147340.06;;;23.28;86.32
5877;BME280;2964;42.144;24.730;2023-06-26T01:42:05;147374.28;;;23.42;85.73
5877;BME280;2964;42.144;24.730;2023-06-26T01:44:36;147347.69;;;23.31;85.52
5877;BME280;2964;42.144;24.730;2023-06-26T01:47:04;147364.13;;;23.38;85.09
5877;BME280;2964;42.144;24.730;2023-06-26T01:49:40;147176.47;;;22.62;85.49
5877;BME280;2964;42.144;24.730;2023-06-26T01:52:13;147355.25;;;23.35;85.21
5877;BME280;2964;42.144;24.730;2023-06-26T01:54:49;147357.81;;;23.36;85.53
5877;BME280;2964;42.144;24.730;2023-06-26T01:57:20;147293.16;;;23.09;85.81
5877;BME280;2964;42.144;24.730;2023-06-26T01:59:50;147338.81;;;23.28;86.05
5877;BME280;2964;42.144;24.730;2023-06-26T02:02:17;147351.44;;;23.33;85.55
5877;BME280;2964;42.144;24.730;2023-06-26T02:04:44;147328.63;;;23.24;85.59
5877;BME280;2964;42.144;24.730;2023-06-26T02:07:13;147321.06;;;23.21;86.31
5877;BME280;2964;42.144;24.730;2023-06-26T02:09:40;147290.59;;;23.08;86.73
5877;BME280;2964;42.144;24.730;2023-06-26T02:12:07;147255.06;;;22.94;87.45
5877;BME280;2964;42.144;24.730;2023-06-26T02:14:34;147279.22;;;23.04;87.23
5877;BME280;2964;42.144;24.730;2023-06-26T02:17:02;147149.88;;;22.51;87.79
5877;BME280;2964;42.144;24.730;2023-06-26T02:19:29;147299.50;;;23.12;87.40
5877;BME280;2964;42.144;24.730;2023-06-26T02:21:55;147271.56;;;23.01;87.44
5877;BME280;2964;42.144;24.730;2023-06-26T02:24:22;147303.31;;;23.13;87.05
5877;BME280;2964;42.144;24.730;2023-06-26T02:26:49;147289.34;;;23.08;87.93
5877;BME280;2964;42.144;24.730;2023-06-26T02:29:15;147258.88;;;22.96;89.10
5877;BME280;2964;42.144;24.730;2023-06-26T02:31:42;147262.69;;;22.97;88.12
5877;BME280;2964;42.144;24.730;2023-06-26T02:34:10;147281.72;;;23.05;87.61
5877;BME280;2964;42.144;24.730;2023-06-26T02:36:37;147257.59;;;22.95;88.54
5877;BME280;2964;42.144;24.730;2023-06-26T02:39:04;147208.16;;;22.75;89.06
5877;BME280;2964;42.144;24.730;2023-06-26T02:41:31;147304.56;;;23.14;87.73
5877;BME280;2964;42.144;24.730;2023-06-26T02:43:58;147296.94;;;23.11;88.02
5877;BME280;2964;42.144;24.730;2023-06-26T02:46:24;147276.63;;;23.03;87.63
5877;BME280;2964;42.144;24.730;2023-06-26T02:48:54;147329.94;;;23.24;87.25
5877;BME280;2964;42.144;24.730;2023-06-26T02:51:22;147315.97;;;23.19;87.51
5877;BME280;2964;42.144;24.730;2023-06-26T02:53:49;147285.53;;;23.06;87.87
5877;BME280;2964;42.144;24.730;2023-06-26T02:56:15;147275.38;;;23.02;87.47
5877;BME280;2964;42.144;24.730;2023-06-26T02:58:42;147290.59;;;23.08;87.91
5877;BME280;2964;42.144;24.730;2023-06-26T03:01:09;147307.09;;;23.15;87.64
5877;BME280;2964;42.144;24.730;2023-06-26T03:03:35;147302.03;;;23.13;88.72
5877;BME280;2964;42.144;24.730;2023-06-26T03:06:05;147276.63;;;23.03;88.87
5877;BME280;2964;42.144;24.730;2023-06-26T03:08:36;147269.00;;;23.00;89.84
5877;BME280;2964;42.144;24.730;2023-06-26T03:11:03;147284.28;;;23.06;88.81
5877;BME280;2964;42.144;24.730;2023-06-26T03:13:30;147280.47;;;23.04;88.24
5877;BME280;2964;42.144;24.730;2023-06-26T03:15:57;147302.03;;;23.13;87.71
5877;BME280;2964;42.144;24.730;2023-06-26T03:18:23;147252.53;;;22.93;88.13
5877;BME280;2964;42.144;24.730;2023-06-26T03:20:50;147326.13;;;23.23;87.34
5877;BME280;2964;42.144;24.730;2023-06-26T03:23:19;147351.44;;;23.33;86.48
5877;BME280;2964;42.144;24.730;2023-06-26T03:25:47;147375.56;;;23.43;86.10
5877;BME280;2964;42.144;24.730;2023-06-26T03:28:14;147407.28;;;23.56;84.83
5877;BME280;2964;42.144;24.730;2023-06-26T03:30:40;147411.09;;;23.57;84.23
5877;BME280;2964;42.144;24.730;2023-06-26T03:33:07;147421.22;;;23.61;84.20
5877;BME280;2964;42.144;24.730;2023-06-26T03:35:34;147393.34;;;23.50;84.82
5877;BME280;2964;42.144;24.730;2023-06-26T03:38:01;147405.97;;;23.55;84.79
5877;BME280;2964;42.144;24.730;2023-06-26T03:40:27;147416.16;;;23.59;84.60
5877;BME280;2964;42.144;24.730;2023-06-26T03:42:55;147432.63;;;23.66;84.38
5877;BME280;2964;42.144;24.730;2023-06-26T03:45:22;147441.50;;;23.69;84.19
5877;BME280;2964;42.144;24.730;2023-06-26T03:47:49;147464.31;;;23.79;83.66
5877;BME280;2964;42.144;24.730;2023-06-26T03:50:15;147472.00;;;23.82;83.65
5877;BME280;2964;42.144;24.730;2023-06-26T03:52:42;147459.25;;;23.77;83.93
5877;BME280;2964;42.144;24.730;2023-06-26T03:55:09;147459.25;;;23.77;84.14
5877;BME280;2964;42.144;24.730;2023-06-26T03:57:35;147484.69;;;23.87;83.29
5877;BME280;2964;42.144;24.730;2023-06-26T04:00:04;147464.31;;;23.79;83.87
5877;BME280;2964;42.144;24.730;2023-06-26T04:02:33;147466.94;;;23.80;83.64
5877;BME280;2964;42.144;24.730;2023-06-26T04:05:00;147482.13;;;23.86;83.60
5877;BME280;2964;42.144;24.730;2023-06-26T04:07:28;147540.50;;;24.09;82.84
5877;BME280;2964;42.144;24.730;2023-06-26T04:09:56;147530.38;;;24.05;83.22
5877;BME280;2964;42.144;24.730;2023-06-26T04:12:23;147545.56;;;24.12;82.81
5877;BME280;2964;42.144;24.730;2023-06-26T04:14:49;147573.47;;;24.23;82.62
5877;BME280;2964;42.144;24.730;2023-06-26T04:17:17;147639.47;;;24.50;81.48
5877;BME280;2964;42.144;24.730;2023-06-26T04:19:45;147680.16;;;24.66;79.67
5877;BME280;2964;42.144;24.730;2023-06-26T04:22:11;147941.69;;;25.72;77.05
5877;BME280;2964;42.144;24.730;2023-06-26T04:24:38;148131.00;;;26.48;73.22
5877;BME280;2964;42.144;24.730;2023-06-26T04:27:05;148250.53;;;26.96;72.90
5877;BME280;2964;42.144;24.730;2023-06-26T04:29:32;148352.25;;;27.38;70.76
5877;BME280;2964;42.144;24.730;2023-06-26T04:31:58;148474.34;;;27.87;68.03
5877;BME280;2964;42.144;24.730;2023-06-26T04:34:27;148462.88;;;27.82;67.96
5877;BME280;2964;42.144;24.730;2023-06-26T04:36:57;148387.88;;;27.52;68.94
5877;BME280;2964;42.144;24.730;2023-06-26T04:39:24;148378.97;;;27.48;68.56
5877;BME280;2964;42.144;24.730;2023-06-26T04:41:51;148300.06;;;27.16;69.93
5877;BME280;2964;42.144;24.730;2023-06-26T04:44:18;148277.19;;;27.07;71.36
5877;BME280;2964;42.144;24.730;2023-06-26T04:46:44;148287.41;;;27.11;69.42
5877;BME280;2964;42.144;24.730;2023-06-26T04:49:11;148473.03;;;27.86;69.81
5877;BME280;2964;42.144;24.730;2023-06-26T04:51:40;148749.22;;;28.98;65.18
5877;BME280;2964;42.144;24.730;2023-06-26T04:54:06;148928.72;;;29.70;63.01
5877;BME280;2964;42.144;24.730;2023-06-26T04:56:33;149068.81;;;30.27;60.01
5877;BME280;2964;42.144;24.730;2023-06-26T04:59:00;149221.75;;;30.88;59.49
5877;BME280;2964;42.144;24.730;2023-06-26T05:01:27;149085.44;;;30.33;55.05
5877;BME280;2964;42.144;24.730;2023-06-26T05:03:55;149130.03;;;30.51;57.77
5877;BME280;2964;42.144;24.730;2023-06-26T05:06:21;148980.97;;;29.91;58.64
5877;BME280;2964;42.144;24.730;2023-06-26T05:08:49;149030.63;;;30.11;58.67
5877;BME280;2964;42.144;24.730;2023-06-26T05:11:16;148944.03;;;29.76;59.63
5877;BME280;2964;42.144;24.730;2023-06-26T05:13:43;148966.97;;;29.86;59.18
5877;BME280;2964;42.144;24.730;2023-06-26T05:16:10;149056.13;;;30.21;58.55
5877;BME280;2964;42.144;24.730;2023-06-26T05:18:36;149280.41;;;31.12;55.34
5877;BME280;2964;42.144;24.730;2023-06-26T05:21:03;149187.31;;;30.74;55.68
5877;BME280;2964;42.144;24.730;2023-06-26T05:23:31;149243.47;;;30.97;56.27
5877;BME280;2964;42.144;24.730;2023-06-26T05:26:00;149453.81;;;31.82;52.75
5877;BME280;2964;42.144;24.730;2023-06-26T05:28:27;149455.06;;;31.82;51.03
5877;BME280;2964;42.144;24.730;2023-06-26T05:30:56;149359.41;;;31.44;53.79
5877;BME280;2964;42.144;24.730;2023-06-26T05:33:27;149212.84;;;30.85;54.02
5877;BME280;2964;42.144;24.730;2023-06-26T05:35:54;149437.22;;;31.75;50.97
5877;BME280;2964;42.144;24.730;2023-06-26T05:38:21;149413.00;;;31.65;50.83
5877;BME280;2964;42.144;24.730;2023-06-26T05:40:49;149249.81;;;31.00;53.33
5877;BME280;2964;42.144;24.730;2023-06-26T05:43:18;149425.72;;;31.70;52.93
5877;BME280;2964;42.144;24.730;2023-06-26T05:45:46;149509.94;;;32.04;50.72
5877;BME280;2964;42.144;24.730;2023-06-26T05:48:13;149665.53;;;32.67;48.31
5877;BME280;2964;42.144;24.730;2023-06-26T05:50:41;149846.72;;;33.40;47.93
5877;BME280;2964;42.144;24.730;2023-06-26T05:53:09;149775.25;;;33.11;47.29
5877;BME280;2964;42.144;24.730;2023-06-26T05:55:37;149670.66;;;32.69;48.20
5877;BME280;2964;42.144;24.730;2023-06-26T05:58:05;149443.56;;;31.78;50.85
5877;BME280;2964;42.144;24.730;2023-06-26T06:00:34;149113.47;;;30.45;53.86
5877;BME280;2964;42.144;24.730;2023-06-26T06:03:00;149048.47;;;30.18;55.01
5877;BME280;2964;42.144;24.730;2023-06-26T06:05:27;148857.41;;;29.41;58.20
5877;BME280;2964;42.144;24.730;2023-06-26T06:07:54;149002.63;;;30.00;54.94
5877;BME280;2964;42.144;24.730;2023-06-26T06:10:20;148983.53;;;29.92;54.69
5877;BME280;2964;42.144;24.730;2023-06-26T06:12:47;149010.28;;;30.03;54.23
5877;BME280;2964;42.144;24.730;2023-06-26T06:15:14;148853.59;;;29.40;56.79
5877;BME280;2964;42.144;24.730;2023-06-26T06:17:42;148829.41;;;29.30;56.31
5877;BME280;2964;42.144;24.730;2023-06-26T06:20:09;148725.00;;;28.88;58.57
5877;BME280;2964;42.144;24.730;2023-06-26T06:22:36;148663.94;;;28.63;59.13
5877;BME280;2964;42.144;24.730;2023-06-26T06:25:03;148639.78;;;28.54;58.31
5877;BME280;2964;42.144;24.730;2023-06-26T06:27:30;148467.97;;;27.84;57.81
5877;BME280;2964;42.144;24.730;2023-06-26T06:29:57;148607.94;;;28.41;58.75
5877;BME280;2964;42.144;24.730;2023-06-26T06:32:23;148602.84;;;28.39;58.98
5877;BME280;2964;42.144;24.730;2023-06-26T06:34:51;148562.13;;;28.22;60.11
5877;BME280;2964;42.144;24.730;2023-06-26T06:37:18;148529.03;;;28.09;61.10
5877;BME280;2964;42.144;24.730;2023-06-26T06:39:45;148427.25;;;27.68;62.04
5877;BME280;2964;42.144;24.730;2023-06-26T06:42:12;148356.09;;;27.39;63.03
5877;BME280;2964;42.144;24.730;2023-06-26T06:44:38;148352.25;;;27.38;64.01
5877;BME280;2964;42.144;24.730;2023-06-26T06:47:05;148269.59;;;27.04;63.17
5877;BME280;2964;42.144;24.730;2023-06-26T06:49:32;148321.69;;;27.25;63.64
5877;BME280;2964;42.144;24.730;2023-06-26T06:52:00;148342.09;;;27.33;63.64
5877;BME280;2964;42.144;24.730;2023-06-26T06:54:27;148351.00;;;27.37;64.01
5877;BME280;2964;42.144;24.730;2023-06-26T06:56:53;148453.97;;;27.79;61.81
5877;BME280;2964;42.144;24.730;2023-06-26T06:59:20;148602.84;;;28.39;59.30
5877;BME280;2964;42.144;24.730;2023-06-26T07:01:47;148712.31;;;28.83;57.45
5877;BME280;2964;42.144;24.730;2023-06-26T07:04:13;148815.44;;;29.24;55.44
5877;BME280;2964;42.144;24.730;2023-06-26T07:06:40;148811.59;;;29.23;56.53
5877;BME280;2964;42.144;24.730;2023-06-26T07:09:08;148819.25;;;29.26;55.07
5877;BME280;2964;42.144;24.730;2023-06-26T07:11:35;148788.69;;;29.14;54.43
5877;BME280;2964;42.144;24.730;2023-06-26T07:14:01;148753.00;;;28.99;57.45
5877;BME280;2964;42.144;24.730;2023-06-26T07:16:28;148681.75;;;28.71;55.87
5877;BME280;2964;42.144;24.730;2023-06-26T07:18:55;148697.00;;;28.77;56.13
5877;BME280;2964;42.144;24.730;2023-06-26T07:21:22;148651.22;;;28.58;56.84
5877;BME280;2964;42.144;24.730;2023-06-26T07:23:49;148646.13;;;28.56;57.52
5877;BME280;2964;42.144;24.730;2023-06-26T07:26:17;148790.00;;;29.14;58.27
5877;BME280;2964;42.144;24.730;2023-06-26T07:28:44;148816.69;;;29.25;56.06
5877;BME280;2964;42.144;24.730;2023-06-26T07:31:10;148797.59;;;29.17;58.94
5877;BME280;2964;42.144;24.730;2023-06-26T07:33:37;148994.97;;;29.97;57.31
5877;BME280;2964;42.144;24.730;2023-06-26T07:36:04;149485.63;;;31.94;50.55
5877;BME280;2964;42.144;24.730;2023-06-26T07:38:31;149826.31;;;33.32;49.94
5877;BME280;2964;42.144;24.730;2023-06-26T07:40:58;150496.84;;;36.01;45.84
5877;BME280;2964;42.144;24.730;2023-06-26T07:43:26;150856.16;;;37.45;36.52
5877;BME280;2964;42.144;24.730;2023-06-26T07:45:53;150651.56;;;36.63;37.62
5877;BME280;2964;42.144;24.730;2023-06-26T07:48:19;150375.41;;;35.52;38.54
5877;BME280;2964;42.144;24.730;2023-06-26T07:50:46;150615.75;;;36.49;38.63
5877;BME280;2964;42.144;24.730;2023-06-26T07:53:13;150907.38;;;37.66;36.59
5877;BME280;2964;42.144;24.730;2023-06-26T07:55:39;150756.38;;;37.05;35.97
5877;BME280;2964;42.144;24.730;2023-06-26T07:58:07;150843.38;;;37.40;35.51
5877;BME280;2964;42.144;24.730;2023-06-26T08:00:35;151288.75;;;39.19;31.59
5877;BME280;2964;42.144;24.730;2023-06-26T08:03:03;151086.47;;;38.38;30.92
5877;BME280;2964;42.144;24.730;2023-06-26T08:05:30;150569.75;;;36.30;34.85
5877;BME280;2964;42.144;24.730;2023-06-26T08:07:57;150104.59;;;34.43;38.60
5877;BME280;2964;42.144;24.730;2023-06-26T08:10:24;149785.47;;;33.15;41.95
5877;BME280;2964;42.144;24.730;2023-06-26T08:12:50;149568.59;;;32.28;43.17
5877;BME280;2964;42.144;24.730;2023-06-26T08:15:18;149319.88;;;31.28;46.44
5877;BME280;2964;42.144;24.730;2023-06-26T08:17:46;149251.09;;;31.00;47.78
5877;BME280;2964;42.144;24.730;2023-06-26T08:20:12;149051.03;;;30.19;50.13
5877;BME280;2964;42.144;24.730;2023-06-26T08:22:39;149011.53;;;30.03;52.25
5877;BME280;2964;42.144;24.730;2023-06-26T08:25:07;148896.91;;;29.57;53.03
5877;BME280;2964;42.144;24.730;2023-06-26T08:27:33;148741.56;;;28.95;55.13
5877;BME280;2964;42.144;24.730;2023-06-26T08:30:00;148750.47;;;28.98;56.46
5877;BME280;2964;42.144;24.730;2023-06-26T08:32:27;148671.59;;;28.66;58.58
5877;BME280;2964;42.144;24.730;2023-06-26T08:34:55;148579.94;;;28.29;63.32
5877;BME280;2964;42.144;24.730;2023-06-26T08:37:21;148475.59;;;27.87;65.78
5877;BME280;2964;42.144;24.730;2023-06-26T08:39:48;148349.69;;;27.37;69.11
5877;BME280;2964;42.144;24.730;2023-06-26T08:42:15;148253.06;;;26.98;70.83
5877;BME280;2964;42.144;24.730;2023-06-26T08:44:42;148302.63;;;27.18;70.44
5877;BME280;2964;42.144;24.730;2023-06-26T08:47:11;148338.28;;;27.32;74.22
5877;BME280;2964;42.144;24.730;2023-06-26T08:49:44;148300.06;;;27.16;75.17
5877;BME280;2964;42.144;24.730;2023-06-26T08:52:17;148343.38;;;27.34;73.99
5877;BME280;2964;42.144;24.730;2023-06-26T08:54:47;148356.09;;;27.39;74.85
5877;BME280;2964;42.144;24.730;2023-06-26T08:57:18;148460.31;;;27.81;72.51
5877;BME280;2964;42.144;24.730;2023-06-26T08:59:46;148467.97;;;27.84;70.54
5877;BME280;2964;42.144;24.730;2023-06-26T09:02:13;148473.03;;;27.86;73.22
5877;BME280;2964;42.144;24.730;2023-06-26T09:04:40;148572.31;;;28.26;75.54
5877;BME280;2964;42.144;24.730;2023-06-26T09:07:07;148630.81;;;28.50;72.66
5877;BME280;2964;42.144;24.730;2023-06-26T09:09:36;149432.13;;;31.73;63.85
5877;BME280;2964;42.144;24.730;2023-06-26T09:12:03;149987.16;;;33.96;47.18
5877;BME280;2964;42.144;24.730;2023-06-26T09:14:30;150048.44;;;34.21;49.29
5877;BME280;2964;42.144;24.730;2023-06-26T09:16:57;150255.31;;;35.04;48.83
5877;BME280;2964;42.144;24.730;2023-06-26T09:19:23;150641.28;;;36.59;40.89
5877;BME280;2964;42.144;24.730;2023-06-26T09:21:50;150799.91;;;37.23;39.49
5877;BME280;2964;42.144;24.730;2023-06-26T09:24:17;150554.38;;;36.24;38.74
5877;BME280;2964;42.144;24.730;2023-06-26T09:26:46;150199.16;;;34.82;39.40
5877;BME280;2964;42.144;24.730;2023-06-26T09:29:14;149749.72;;;33.01;44.06
5877;BME280;2964;42.144;24.730;2023-06-26T09:31:41;149393.84;;;31.58;47.14
5877;BME280;2964;42.144;24.730;2023-06-26T09:34:08;148983.53;;;29.92;54.67
5877;BME280;2964;42.144;24.730;2023-06-26T09:36:36;148773.38;;;29.07;59.08
5877;BME280;2964;42.144;24.730;2023-06-26T09:39:05;148781.03;;;29.11;60.61
5877;BME280;2964;42.144;24.730;2023-06-26T09:41:35;148605.38;;;28.40;63.99
5877;BME280;2964;42.144;24.730;2023-06-26T09:44:05;148541.75;;;28.14;65.23
5877;BME280;2964;42.144;24.730;2023-06-26T09:46:33;148508.72;;;28.01;65.18
5877;BME280;2964;42.144;24.730;2023-06-26T09:49:02;148427.25;;;27.68;66.23
5877;BME280;2964;42.144;24.730;2023-06-26T09:51:30;148239.06;;;26.92;70.17
5877;BME280;2964;42.144;24.730;2023-06-26T09:53:58;148216.19;;;26.83;68.07
5877;BME280;2964;42.144;24.730;2023-06-26T09:56:25;148234.00;;;26.90;69.50
5877;BME280;2964;42.144;24.730;2023-06-26T09:58:54;148246.72;;;26.95;68.37
5877;BME280;2964;42.144;24.730;2023-06-26T10:01:23;148161.56;;;26.61;69.52
5877;BME280;2964;42.144;24.730;2023-06-26T10:03:49;148057.31;;;26.18;73.98
5877;BME280;2964;42.144;24.730;2023-06-26T10:06:19;148099.22;;;26.35;75.40
5877;BME280;2964;42.144;24.730;2023-06-26T10:08:46;148118.31;;;26.43;78.16
5877;BME280;2964;42.144;24.730;2023-06-26T10:11:16;148142.47;;;26.53;75.60
5877;BME280;2964;42.144;24.730;2023-06-26T10:13:49;148124.66;;;26.46;77.14
5877;BME280;2964;42.144;24.730;2023-06-26T10:16:19;148026.84;;;26.06;82.84
5877;BME280;2964;42.144;24.730;2023-06-26T10:18:51;147908.69;;;25.58;86.17
5877;BME280;2964;42.144;24.730;2023-06-26T10:21:20;147945.50;;;25.73;87.79
5877;BME280;2964;42.144;24.730;2023-06-26T10:23:50;148058.56;;;26.19;87.97
5877;BME280;2964;42.144;24.730;2023-06-26T10:26:21;148146.28;;;26.54;86.61
5877;BME280;2964;42.144;24.730;2023-06-26T10:28:49;148422.19;;;27.66;82.26
5877;BME280;2964;42.144;24.730;2023-06-26T10:31:19;148549.41;;;28.17;75.57
5877;BME280;2964;42.144;24.730;2023-06-26T10:33:47;148607.94;;;28.41;68.82
5877;BME280;2964;42.144;24.730;2023-06-26T10:36:16;148711.00;;;28.82;66.80
5877;BME280;2964;42.144;24.730;2023-06-26T10:38:51;148747.91;;;28.97;64.32
5877;BME280;2964;42.144;24.730;2023-06-26T10:41:21;148709.75;;;28.82;63.71
5877;BME280;2964;42.144;24.730;2023-06-26T10:43:50;148655.03;;;28.60;66.79
5877;BME280;2964;42.144;24.730;2023-06-26T10:46:18;148680.50;;;28.70;68.59
5877;BME280;2964;42.144;24.730;2023-06-26T10:49:04;148656.28;;;28.60;62.94
5877;BME280;2964;42.144;24.730;2023-06-26T10:51:32;148782.28;;;29.11;63.61
5877;BME280;2964;42.144;24.730;2023-06-26T10:54:00;148777.22;;;29.09;62.58
5877;BME280;2964;42.144;24.730;2023-06-26T10:56:43;148811.59;;;29.23;58.80
5877;BME280;2964;42.144;24.730;2023-06-26T10:59:14;148843.41;;;29.36;60.62
5877;BME280;2964;42.144;24.730;2023-06-26T11:01:42;148844.69;;;29.36;57.99
5877;BME280;2964;42.144;24.730;2023-06-26T11:04:10;148895.63;;;29.57;58.67
5877;BME280;2964;42.144;24.730;2023-06-26T11:06:38;148965.69;;;29.85;59.45
5877;BME280;2964;42.144;24.730;2023-06-26T11:09:10;149017.88;;;30.06;58.04
5877;BME280;2964;42.144;24.730;2023-06-26T11:11:56;148917.25;;;29.65;54.71
5877;BME280;2964;42.144;24.730;2023-06-26T11:14:31;148923.63;;;29.68;53.12
5877;BME280;2964;42.144;24.730;2023-06-26T11:16:59;148588.84;;;28.33;53.77
5877;BME280;2964;42.144;24.730;2023-06-26T11:19:28;148847.25;;;29.37;51.97
5877;BME280;2964;42.144;24.730;2023-06-26T11:22:13;148854.91;;;29.40;49.39
5877;BME280;2964;42.144;24.730;2023-06-26T11:24:42;148783.56;;;29.12;50.56
5877;BME280;2964;42.144;24.730;2023-06-26T11:27:10;148730.09;;;28.90;52.86
5877;BME280;2964;42.144;24.730;2023-06-26T11:29:36;148770.81;;;29.06;50.49
5877;BME280;2964;42.144;24.730;2023-06-26T11:32:04;148732.66;;;28.91;52.28
5877;BME280;2964;42.144;24.730;2023-06-26T11:34:33;148676.69;;;28.68;52.21
5877;BME280;2964;42.144;24.730;2023-06-26T11:37:00;148627.00;;;28.48;52.19
5877;BME280;2964;42.144;24.730;2023-06-26T11:39:29;148525.25;;;28.07;55.99
5877;BME280;2964;42.144;24.730;2023-06-26T11:41:56;148394.22;;;27.54;61.06
5877;BME280;2964;42.144;24.730;2023-06-26T11:44:23;148185.69;;;26.70;69.51
5877;BME280;2964;42.144;24.730;2023-06-26T11:46:53;148066.22;;;26.22;67.81
5877;BME280;2964;42.144;24.730;2023-06-26T11:49:21;147908.69;;;25.58;75.17
5877;BME280;2964;42.144;24.730;2023-06-26T11:51:51;147885.84;;;25.49;78.97
5877;BME280;2964;42.144;24.730;2023-06-26T11:54:23;147964.56;;;25.81;80.51
5877;BME280;2964;42.144;24.730;2023-06-26T11:56:56;148020.47;;;26.04;80.08
5877;BME280;2964;42.144;24.730;2023-06-26T11:59:23;148162.81;;;26.61;77.36
5877;BME280;2964;42.144;24.730;2023-06-26T12:01:50;148183.16;;;26.69;75.40
5877;BME280;2964;42.144;24.730;2023-06-26T12:04:18;148204.75;;;26.78;80.19
5877;BME280;2964;42.144;24.730;2023-06-26T12:06:47;148221.28;;;26.85;87.72
5877;BME280;2964;42.144;24.730;2023-06-26T12:09:15;148274.66;;;27.06;80.17
5877;BME280;2964;42.144;24.730;2023-06-26T12:11:45;148292.47;;;27.13;79.10
5877;BME280;2964;42.144;24.730;2023-06-26T12:14:16;148335.72;;;27.31;74.20
5877;BME280;2964;42.144;24.730;2023-06-26T12:16:43;148305.16;;;27.19;74.94
5877;BME280;2964;42.144;24.730;2023-06-26T12:19:10;148317.88;;;27.24;78.55
5877;BME280;2964;42.144;24.730;2023-06-26T12:21:47;148398.03;;;27.56;77.73
5877;BME280;2964;42.144;24.730;2023-06-26T12:24:18;148432.34;;;27.70;75.39
5877;BME280;2964;42.144;24.730;2023-06-26T12:26:46;148422.19;;;27.66;71.17
5877;BME280;2964;42.144;24.730;2023-06-26T12:29:16;148512.53;;;28.02;70.58
5877;BME280;2964;42.144;24.730;2023-06-26T12:31:44;148569.75;;;28.25;67.58
5877;BME280;2964;42.144;24.730;2023-06-26T12:34:12;148620.66;;;28.46;61.90
5877;BME280;2964;42.144;24.730;2023-06-26T12:36:43;148690.69;;;28.74;64.35
5877;BME280;2964;42.144;24.730;2023-06-26T12:39:11;148760.66;;;29.02;61.71
5877;BME280;2964;42.144;24.730;2023-06-26T12:41:46;148825.59;;;29.29;61.52
5877;BME280;2964;42.144;24.730;2023-06-26T12:44:26;148858.72;;;29.42;56.93
5877;BME280;2964;42.144;24.730;2023-06-26T12:46:58;148804.00;;;29.20;52.39
5877;BME280;2964;42.144;24.730;2023-06-26T12:49:31;148707.19;;;28.81;57.99
5877;BME280;2964;42.144;24.730;2023-06-26T12:51:59;148756.81;;;29.01;60.36
5877;BME280;2964;42.144;24.730;2023-06-26T12:54:26;148718.66;;;28.85;60.57
5877;BME280;2964;42.144;24.730;2023-06-26T12:56:53;148722.50;;;28.87;60.79
5877;BME280;2964;42.144;24.730;2023-06-26T12:59:19;148493.47;;;27.95;66.57
5877;BME280;2964;42.144;24.730;2023-06-26T13:01:47;148296.28;;;27.15;71.94
5877;BME280;2964;42.144;24.730;2023-06-26T13:04:14;148161.56;;;26.61;76.09